Abilene, TX

4:39 PM CDT on September 02, 2014 (GMT -0500)
Abilene Regional | Change Station
CLOSE
Current Station
Airport
Location: Abilene,
Elevation: 1788 ft
Nearby Weather Stations

Elev 1788 ft 32.41 °N, 99.68 °W | Updated 47 minutes ago

Partly Cloudy
Partly Cloudy
97 °F
Feels Like 99 °F
N
14
Wind Variable Wind from SSE
Gusts 26 mph

Today
High -- | Low -- °F
--% Chance of Precip.
Yesterday
High -- | Low -- °F
Precip. -- in
7:14 AM 8:01 PM
First Quarter, 55% visible
Pressure 29.83 in
Visibility 10.0 miles
Clouds Few 7500 ft
Heat Index 99 °F
Dew Point 64 °F
Humidity 34%
Rainfall 0.00 in
Snow Depth Not available.
UV 7 out of 12
Pollen 10.70 out of 12
Air Quality Not available.
Flu Activity Not available.
METAR KABI 022052Z 16012G23KT 10SM FEW075 36/18 A2992 RMK AO2 SLP100 T03610178 58015

More Conditions Fewer Conditions

Pressure 29.83 in
Visibility 10.0 miles
Clouds Few 7500 ft
Heat Index 99 °F
Dew Point 64 °F
Humidity 34%
Rainfall 0.00 in
Snow Depth Not available.
UV 7 out of 12
Pollen 10.70 out of 12
Air Quality Not available.
Flu Activity Not available.
METAR KABI 022052Z 16012G23KT 10SM FEW075 36/18 A2992 RMK AO2 SLP100 T03610178 58015

More Conditions Fewer Conditions

10-Day Weather Forecast

Almanac

Astronomy

Sep. 02, 2014 Rise Set
Actual Time 7:14 AM CDT 8:01 PM CDT
Civil Twilight 6:49 AM CDT 8:26 PM CDT
Nautical Twilight 6:19 AM CDT 8:56 PM CDT
Astronomical Twilight 5:49 AM CDT 9:26 PM CDT
Moon 2:36 PM CDT 12:28 AM CDT
Length of Visible Light 13h 37m
Length of Day
12h 47m
Tomorrow will be 1m 55s shorter.
First Quarter, 55% of the Moon is Illuminated
Today
First Quarter
Sep 8
Full
Sep 15
Last Quarter
Sep 24
New
Oct 1
First Quarter

Today's Extremes

State Highs State Lows

Community

WunderPhotos

Upload Photos

1,749,776 photos uploaded!

Nearby

Snow Depth

Station Depth Elevation
No new snow has been reported.

Earthquake Activity

City Distance Mag. Time & Date
No recent earthquake activity has been reported nearby.
Minimum magnitude displayed is 2.5.

Coastal Water Temperatures

Place Temperature
No Stations Reporting

Nearby Weather Stations